createdAt,value
2017-08-18T00:02:19.060Z,19.94
2017-08-18T00:04:48.616Z,20.07
2017-08-18T00:07:18.196Z,20.18
2017-08-18T00:09:48.232Z,19.87
2017-08-18T00:12:17.531Z,19.98
2017-08-18T00:14:47.615Z,19.91
2017-08-18T00:17:17.053Z,19.87
2017-08-18T00:19:46.415Z,19.73
2017-08-18T00:22:15.891Z,19.62
2017-08-18T00:24:46.069Z,19.73
2017-08-18T00:27:15.759Z,19.70
2017-08-18T00:29:45.651Z,19.36
2017-08-18T00:32:18.255Z,19.59
2017-08-18T00:34:47.522Z,19.70
2017-08-18T00:37:18.133Z,19.80
2017-08-18T00:39:48.995Z,19.84
2017-08-18T00:42:18.459Z,19.83
2017-08-18T00:44:47.666Z,19.63
2017-08-18T00:47:17.967Z,19.54
2017-08-18T00:49:47.730Z,19.40
2017-08-18T00:52:17.600Z,19.20
2017-08-18T00:54:47.128Z,19.06
2017-08-18T00:57:17.655Z,19.10
2017-08-18T00:59:48.338Z,19.26
2017-08-18T01:02:17.592Z,19.32
2017-08-18T01:04:46.770Z,19.35
2017-08-18T01:07:16.866Z,19.47
2017-08-18T01:09:46.102Z,19.40
2017-08-18T01:12:15.342Z,19.38
2017-08-18T01:14:46.123Z,19.32
2017-08-18T01:17:15.812Z,19.34
2017-08-18T01:19:46.295Z,19.37
2017-08-18T01:22:15.570Z,19.28
2017-08-18T01:24:46.139Z,19.39
2017-08-18T01:27:15.563Z,19.46
2017-08-18T01:32:25.749Z,19.49
2017-08-18T01:34:54.935Z,19.44
2017-08-18T01:37:24.495Z,19.43
2017-08-18T01:39:54.471Z,19.43
2017-08-18T01:42:23.790Z,19.41
2017-08-18T01:44:53.156Z,19.42
2017-08-18T01:47:22.872Z,19.31
2017-08-18T01:49:52.091Z,19.32
2017-08-18T01:52:21.779Z,19.31
2017-08-18T01:54:51.260Z,19.25
2017-08-18T01:57:20.792Z,19.27
2017-08-18T01:59:50.484Z,19.25
2017-08-18T02:02:20.063Z,19.28
2017-08-18T02:04:49.419Z,19.15
2017-08-18T02:07:19.378Z,19.12
2017-08-18T02:09:48.958Z,19.17
2017-08-18T02:12:18.595Z,19.08
2017-08-18T02:14:48.255Z,19.03
2017-08-18T02:17:17.529Z,18.72
2017-08-18T02:19:46.764Z,18.49
2017-08-18T02:22:16.638Z,18.64
2017-08-18T02:24:46.518Z,18.61
2017-08-18T02:27:15.806Z,18.62
2017-08-18T02:29:45.834Z,18.84
2017-08-18T02:32:15.651Z,18.83
2017-08-18T02:34:45.711Z,18.75
2017-08-18T02:37:15.643Z,18.77
2017-08-18T02:39:46.238Z,18.57
2017-08-18T02:42:17.604Z,18.44
2017-08-18T02:44:47.025Z,18.41
2017-08-18T02:47:16.523Z,18.36
2017-08-18T02:49:46.871Z,18.51
2017-08-18T02:52:16.354Z,18.83
2017-08-18T02:54:46.296Z,18.67
2017-08-18T02:57:15.967Z,18.85
2017-08-18T02:59:46.324Z,18.66
2017-08-18T03:02:46.783Z,18.80
2017-08-18T03:05:16.334Z,18.79
2017-08-18T03:07:45.953Z,18.84
2017-08-18T03:10:15.156Z,18.81
2017-08-18T03:12:47.195Z,18.79
2017-08-18T03:15:16.751Z,18.80
2017-08-18T03:17:46.059Z,18.71
2017-08-18T03:20:15.527Z,18.51
2017-08-18T03:22:45.577Z,18.25
2017-08-18T03:25:15.119Z,18.32
2017-08-18T03:27:47.935Z,18.42
2017-08-18T03:30:17.144Z,18.33
2017-08-18T03:32:46.692Z,18.15
2017-08-18T03:35:16.230Z,18.34
2017-08-18T03:37:46.041Z,18.48
2017-08-18T03:40:15.231Z,18.58
2017-08-18T03:42:46.140Z,18.61
2017-08-18T03:45:15.795Z,18.67
2017-08-18T03:47:46.708Z,18.61
2017-08-18T03:50:16.008Z,18.67
2017-08-18T03:52:45.632Z,18.62
2017-08-18T03:55:15.191Z,18.46
2017-08-18T03:57:45.844Z,18.25
2017-08-18T04:00:15.280Z,18.18
2017-08-18T04:02:45.654Z,18.14
2017-08-18T04:05:15.124Z,18.22
2017-08-18T04:07:45.938Z,18.28
2017-08-18T04:10:15.147Z,18.25
2017-08-18T04:12:46.231Z,18.27
2017-08-18T04:15:15.438Z,18.17
2017-08-18T04:17:46.604Z,18.09
2017-08-18T04:20:15.798Z,18.11
2017-08-18T04:22:46.462Z,17.99
2017-08-18T04:25:17.147Z,17.93
2017-08-18T04:27:46.703Z,17.86
2017-08-18T04:30:16.446Z,17.79
2017-08-18T04:32:45.694Z,17.84
2017-08-18T04:35:15.187Z,17.86
2017-08-18T04:37:46.775Z,17.86
2017-08-18T04:40:15.951Z,17.87
2017-08-18T04:42:46.014Z,17.95
2017-08-18T04:45:15.581Z,18.34
2017-08-18T04:47:48.619Z,18.43
2017-08-18T04:50:18.235Z,18.42
2017-08-18T04:52:48.115Z,18.27
2017-08-18T04:55:17.436Z,18.42
2017-08-18T04:57:46.569Z,18.61
2017-08-18T05:00:16.130Z,18.71
2017-08-18T05:02:46.643Z,18.85
2017-08-18T05:05:15.882Z,18.92
2017-08-18T05:07:46.433Z,19.15
2017-08-18T05:10:15.714Z,19.27
2017-08-18T05:12:46.526Z,19.49
2017-08-18T05:15:16.692Z,19.60
2017-08-18T05:17:46.013Z,19.81
2017-08-18T05:20:15.959Z,19.98
2017-08-18T05:22:47.073Z,20.12
2017-08-18T05:25:16.434Z,20.30
2017-08-18T05:27:45.710Z,20.48
2017-08-18T05:30:15.343Z,20.54
2017-08-18T05:32:44.885Z,20.71
2017-08-18T05:35:14.489Z,20.69
2017-08-18T05:37:45.107Z,20.81
2017-08-18T05:40:14.670Z,20.82
2017-08-18T05:42:44.313Z,20.94
2017-08-18T05:45:13.799Z,21.04
2017-08-18T05:47:46.842Z,21.16
2017-08-18T05:50:16.332Z,21.07
2017-08-18T05:52:45.663Z,21.18
2017-08-18T05:55:14.805Z,21.23
2017-08-18T05:57:44.627Z,21.27
2017-08-18T06:00:13.772Z,21.18
2017-08-18T06:02:44.775Z,21.16
2017-08-18T06:05:15.964Z,21.33
2017-08-18T06:07:45.429Z,21.49
2017-08-18T06:10:14.591Z,21.73
2017-08-18T06:12:45.007Z,21.76
2017-08-18T06:15:14.742Z,22.03
2017-08-18T06:17:45.079Z,22.23
2017-08-18T06:20:14.595Z,22.28
2017-08-18T06:22:45.113Z,22.46
2017-08-18T06:25:14.283Z,22.33
2017-08-18T06:27:46.083Z,22.28
2017-08-18T06:30:15.311Z,22.40
2017-08-18T06:32:44.483Z,22.38
2017-08-18T06:35:13.913Z,22.33
2017-08-18T06:37:44.423Z,22.64
2017-08-18T06:40:13.666Z,22.49
2017-08-18T06:42:44.786Z,22.99
2017-08-18T06:45:14.275Z,23.17
2017-08-18T06:47:45.097Z,23.09
2017-08-18T06:50:14.625Z,23.31
2017-08-18T06:52:45.293Z,23.38
2017-08-18T06:55:14.908Z,23.41
2017-08-18T06:57:44.797Z,23.51
2017-08-18T07:00:14.030Z,23.89
2017-08-18T07:02:45.019Z,23.50
2017-08-18T07:05:14.467Z,23.78
2017-08-18T07:07:44.992Z,23.82
2017-08-18T07:10:14.154Z,23.64
2017-08-18T07:12:46.364Z,23.70
2017-08-18T07:15:15.773Z,23.82
2017-08-18T07:17:45.528Z,23.73
2017-08-18T07:20:15.421Z,23.56
2017-08-18T07:22:47.854Z,23.51
2017-08-18T07:25:17.607Z,23.65
2017-08-18T07:27:46.806Z,23.67
2017-08-18T07:30:16.192Z,23.58
2017-08-18T07:32:47.266Z,23.56
2017-08-18T07:35:16.737Z,23.63
2017-08-18T07:37:46.351Z,23.71
2017-08-18T07:40:15.834Z,23.71
2017-08-18T07:42:45.792Z,23.59
2017-08-18T07:45:15.252Z,23.56
2017-08-18T07:47:45.972Z,23.51
2017-08-18T07:50:15.752Z,23.49
2017-08-18T07:52:46.680Z,23.66
2017-08-18T07:55:16.337Z,23.76
2017-08-18T07:57:45.871Z,23.83
2017-08-18T08:00:15.039Z,24.04
2017-08-18T08:02:44.984Z,24.00
2017-08-18T08:05:14.138Z,23.96
2017-08-18T08:07:44.611Z,24.11
2017-08-18T08:10:14.130Z,23.84
2017-08-18T08:12:44.990Z,24.14
2017-08-18T08:15:14.235Z,24.46
2017-08-18T08:17:44.761Z,24.76
2017-08-18T08:20:15.616Z,24.91
2017-08-18T08:22:45.846Z,25.15
2017-08-18T08:25:15.338Z,25.36
2017-08-18T08:27:44.755Z,25.27
2017-08-18T08:30:13.990Z,25.80
2017-08-18T08:32:45.233Z,25.88
2017-08-18T08:35:14.698Z,25.72
2017-08-18T08:37:46.340Z,26.20
2017-08-18T08:40:17.134Z,25.56
2017-08-18T08:42:46.831Z,25.53
2017-08-18T08:45:16.284Z,25.41
2017-08-18T08:47:45.821Z,25.55
2017-08-18T08:50:15.001Z,25.46
2017-08-18T08:52:44.785Z,25.31
2017-08-18T08:55:14.255Z,25.12
2017-08-18T08:57:45.127Z,25.23
2017-08-18T09:00:14.295Z,25.18
2017-08-18T09:02:44.857Z,25.31
2017-08-18T09:05:14.343Z,25.44
2017-08-18T09:07:47.295Z,25.18
2017-08-18T09:10:17.951Z,25.26
2017-08-18T09:12:47.228Z,24.96
2017-08-18T09:15:17.004Z,24.97
2017-08-18T09:17:46.619Z,25.20
2017-08-18T09:20:15.834Z,25.06
2017-08-18T09:22:45.562Z,24.87
2017-08-18T09:25:14.727Z,24.83
2017-08-18T09:27:44.802Z,24.73
2017-08-18T09:30:14.323Z,24.83
2017-08-18T09:32:45.068Z,24.87
2017-08-18T09:35:14.232Z,24.74
2017-08-18T09:37:46.755Z,24.57
2017-08-18T09:40:15.951Z,24.60
2017-08-18T09:42:45.151Z,24.60
2017-08-18T09:45:14.731Z,24.55
2017-08-18T09:47:49.307Z,24.47
2017-08-18T09:52:29.746Z,24.47
2017-08-18T09:57:12.582Z,24.68
2017-08-18T09:59:46.143Z,24.53
2017-08-18T10:02:15.623Z,24.56
2017-08-18T10:04:45.259Z,24.46
2017-08-18T10:07:14.793Z,24.38
2017-08-18T10:09:45.282Z,24.57
2017-08-18T10:12:14.447Z,24.32
2017-08-18T10:14:44.679Z,24.28
2017-08-18T10:17:13.946Z,24.12
2017-08-18T10:19:44.716Z,24.00
2017-08-18T10:22:14.276Z,23.95
2017-08-18T10:24:45.540Z,23.87
2017-08-18T10:27:14.830Z,23.79
2017-08-18T10:29:44.950Z,23.90
2017-08-18T10:32:14.483Z,23.93
2017-08-18T10:34:45.947Z,24.21
2017-08-18T10:37:15.969Z,24.31
2017-08-18T10:39:45.186Z,24.63
2017-08-18T10:42:15.023Z,24.66
2017-08-18T10:44:48.109Z,24.86
2017-08-18T10:47:17.351Z,24.97
2017-08-18T10:49:46.656Z,25.35
2017-08-18T10:52:16.105Z,25.87
2017-08-18T10:54:45.287Z,26.13
2017-08-18T10:57:14.658Z,26.65
2017-08-18T10:59:47.906Z,27.33
2017-08-18T11:02:17.074Z,27.50
2017-08-18T11:04:46.245Z,27.37
2017-08-18T11:07:15.559Z,27.32
2017-08-18T11:09:48.534Z,28.00
2017-08-18T11:12:18.051Z,28.89
2017-08-18T11:14:47.241Z,28.47
2017-08-18T11:17:16.539Z,28.72
2017-08-18T11:19:46.050Z,29.26
2017-08-18T11:22:15.234Z,28.54
2017-08-18T11:24:45.642Z,28.14
2017-08-18T11:27:15.099Z,28.27
2017-08-18T11:29:44.889Z,27.53
2017-08-18T11:32:14.103Z,27.36
2017-08-18T11:34:45.170Z,26.84
2017-08-18T11:37:14.386Z,26.84
2017-08-18T11:39:45.089Z,26.80
2017-08-18T11:42:14.634Z,27.17
2017-08-18T11:44:44.959Z,27.81
2017-08-18T11:47:14.130Z,27.82
2017-08-18T11:49:44.851Z,27.82
2017-08-18T11:52:14.024Z,28.31
2017-08-18T11:54:44.699Z,28.72
2017-08-18T11:57:14.166Z,28.79
2017-08-18T11:59:45.089Z,28.36
2017-08-18T12:02:14.381Z,28.40
2017-08-18T12:04:44.887Z,28.54
2017-08-18T12:07:14.080Z,28.73
2017-08-18T12:09:44.883Z,29.11
2017-08-18T12:12:14.483Z,28.97
2017-08-18T12:14:45.102Z,28.82
2017-08-18T12:17:14.248Z,28.25
2017-08-18T12:19:44.557Z,27.99
2017-08-18T12:22:13.734Z,28.32
2017-08-18T12:24:44.399Z,28.53
2017-08-18T12:27:13.847Z,28.11
2017-08-18T12:29:44.885Z,28.37
2017-08-18T12:32:14.675Z,28.51
2017-08-18T12:34:44.942Z,28.99
2017-08-18T12:37:14.114Z,28.83
2017-08-18T12:39:44.754Z,28.52
2017-08-18T12:42:14.303Z,28.77
2017-08-18T12:44:45.054Z,28.47
2017-08-18T12:47:14.315Z,28.71
2017-08-18T12:49:45.349Z,28.69
2017-08-18T12:52:14.562Z,28.74
2017-08-18T12:54:45.287Z,28.86
2017-08-18T12:57:14.849Z,28.99
2017-08-18T12:59:45.242Z,29.12
2017-08-18T13:02:14.445Z,28.75
2017-08-18T13:04:45.348Z,28.69
2017-08-18T13:07:14.575Z,29.50
2017-08-18T13:09:44.864Z,28.88
2017-08-18T13:12:14.886Z,28.31
2017-08-18T13:14:45.069Z,28.11
2017-08-18T13:17:14.284Z,28.24
2017-08-18T13:19:45.000Z,28.65
2017-08-18T13:22:14.639Z,28.63
2017-08-18T13:24:45.399Z,28.86
2017-08-18T13:27:14.878Z,28.82
2017-08-18T13:29:45.495Z,28.74
2017-08-18T13:32:14.683Z,28.71
2017-08-18T13:34:45.451Z,28.72
2017-08-18T13:37:14.649Z,28.86
2017-08-18T13:39:45.333Z,28.84
2017-08-18T13:42:15.187Z,29.02
2017-08-18T13:44:45.182Z,28.83
2017-08-18T13:47:14.375Z,28.94
2017-08-18T13:49:45.319Z,28.68
2017-08-18T13:52:14.529Z,28.62
2017-08-18T13:54:45.314Z,28.69
2017-08-18T13:57:14.755Z,28.38
2017-08-18T13:59:44.948Z,28.14
2017-08-18T14:02:14.360Z,28.35
2017-08-18T14:04:47.344Z,28.29
2017-08-18T14:07:16.518Z,27.93
2017-08-18T14:09:45.653Z,27.96
2017-08-18T14:12:15.142Z,28.12
2017-08-18T14:14:44.867Z,28.02
2017-08-18T14:17:14.054Z,27.80
2017-08-18T14:19:46.851Z,27.63
2017-08-18T14:22:16.094Z,27.61
2017-08-18T14:24:49.688Z,27.64
2017-08-18T14:27:49.426Z,27.69
2017-08-18T14:30:18.634Z,27.89
2017-08-18T14:32:48.099Z,27.62
2017-08-18T14:35:18.111Z,27.59
2017-08-18T14:37:47.288Z,27.80
2017-08-18T14:40:16.793Z,27.52
2017-08-18T14:42:45.943Z,27.54
2017-08-18T14:45:15.134Z,27.60
2017-08-18T14:47:45.889Z,27.44
2017-08-18T14:50:15.050Z,27.48
2017-08-18T14:52:45.498Z,27.63
2017-08-18T14:55:15.007Z,27.59
2017-08-18T14:57:46.738Z,27.46
2017-08-18T15:00:16.148Z,27.29
2017-08-18T15:02:46.867Z,27.42
2017-08-18T15:05:16.154Z,27.37
2017-08-18T15:07:45.340Z,27.57
2017-08-18T15:10:14.856Z,27.53
2017-08-18T15:12:44.045Z,27.64
2017-08-18T15:15:13.351Z,27.57
2017-08-18T15:17:46.619Z,27.59
2017-08-18T15:20:15.878Z,27.50
2017-08-18T15:22:45.014Z,27.36
2017-08-18T15:25:14.806Z,27.37
2017-08-18T15:27:47.390Z,27.18
2017-08-18T15:30:16.543Z,27.35
2017-08-18T15:32:46.291Z,27.43
2017-08-18T15:35:15.455Z,27.57
2017-08-18T15:37:47.124Z,27.33
2017-08-18T15:40:16.615Z,27.27
2017-08-18T15:42:45.848Z,27.15
2017-08-18T15:45:16.035Z,27.13
2017-08-18T15:47:45.574Z,26.86
2017-08-18T15:50:14.946Z,26.88
2017-08-18T15:52:49.044Z,26.41
2017-08-18T15:55:18.562Z,25.96
2017-08-18T15:57:47.704Z,25.79
2017-08-18T16:00:16.929Z,25.36
2017-08-18T16:02:46.431Z,24.92
2017-08-18T16:05:15.615Z,25.04
2017-08-18T16:07:45.544Z,25.09
2017-08-18T16:10:15.032Z,25.07
2017-08-18T16:12:45.107Z,24.93
2017-08-18T16:15:14.324Z,24.62
2017-08-18T16:17:47.516Z,24.52
2017-08-18T16:20:16.689Z,24.39
2017-08-18T16:22:46.016Z,24.35
2017-08-18T16:25:15.610Z,24.34
2017-08-18T16:27:47.171Z,24.42
2017-08-18T16:30:16.496Z,24.44
2017-08-18T16:32:46.091Z,24.24
2017-08-18T16:35:15.335Z,24.23
2017-08-18T16:37:47.617Z,24.24
2017-08-18T16:40:17.149Z,24.23
2017-08-18T16:42:46.279Z,24.06
2017-08-18T16:45:18.003Z,23.94
2017-08-18T16:47:47.456Z,23.75
2017-08-18T16:50:17.133Z,23.74
2017-08-18T16:52:46.319Z,23.59
2017-08-18T16:55:15.842Z,23.59
2017-08-18T16:57:45.245Z,23.47
2017-08-18T17:00:14.484Z,23.48
2017-08-18T17:02:45.463Z,23.40
2017-08-18T17:05:14.817Z,23.33
2017-08-18T17:07:45.180Z,23.26
2017-08-18T17:10:14.748Z,23.13
2017-08-18T17:12:45.016Z,23.11
2017-08-18T17:15:14.179Z,22.97
2017-08-18T17:17:45.310Z,22.47
2017-08-18T17:20:14.479Z,22.01
2017-08-18T17:22:45.247Z,21.84
2017-08-18T17:25:14.680Z,21.64
2017-08-18T17:27:44.942Z,21.52
2017-08-18T17:30:14.078Z,21.32
2017-08-18T17:32:45.332Z,21.22
2017-08-18T17:35:14.590Z,21.16
2017-08-18T17:37:45.393Z,21.20
2017-08-18T17:40:15.112Z,20.91
2017-08-18T17:42:44.932Z,20.73
2017-08-18T17:45:14.187Z,20.81
2017-08-18T17:47:45.719Z,20.44
2017-08-18T17:50:14.907Z,20.51
2017-08-18T17:52:45.035Z,20.48
2017-08-18T17:55:14.475Z,20.60
2017-08-18T17:57:44.962Z,20.47
2017-08-18T18:00:14.319Z,20.56
2017-08-18T18:02:45.462Z,20.38
2017-08-18T18:05:14.679Z,20.51
2017-08-18T18:07:45.123Z,20.47
2017-08-18T18:10:14.595Z,20.31
2017-08-18T18:12:45.142Z,20.23
2017-08-18T18:15:14.454Z,20.37
2017-08-18T18:17:44.934Z,20.13
2017-08-18T18:20:14.206Z,20.40
2017-08-18T18:22:46.618Z,20.35
2017-08-18T18:25:16.176Z,19.92
2017-08-18T18:27:45.432Z,19.84
2017-08-18T18:30:16.022Z,19.78
2017-08-18T18:32:46.795Z,19.62
2017-08-18T18:35:16.086Z,19.74
2017-08-18T18:37:45.307Z,19.48
2017-08-18T18:40:14.871Z,19.37
2017-08-18T18:42:45.096Z,19.46
2017-08-18T18:45:14.530Z,19.54
2017-08-18T18:47:44.959Z,19.53
2017-08-18T18:50:14.267Z,19.51
2017-08-18T18:52:44.880Z,19.39
2017-08-18T18:55:15.754Z,19.44
2017-08-18T18:57:45.755Z,19.60
2017-08-18T19:00:15.042Z,19.57
2017-08-18T19:02:47.340Z,19.53
2017-08-18T19:05:16.647Z,19.54
2017-08-18T19:07:46.007Z,19.40
2017-08-18T19:10:16.796Z,19.40
2017-08-18T19:12:46.154Z,19.53
2017-08-18T19:15:15.410Z,19.28
2017-08-18T19:17:44.957Z,19.25
2017-08-18T19:20:14.318Z,18.97
2017-08-18T19:22:45.183Z,18.97
2017-08-18T19:25:14.738Z,18.85
2017-08-18T19:27:46.323Z,18.95
2017-08-18T19:32:53.990Z,18.85
2017-08-18T19:35:23.319Z,18.93
2017-08-18T19:37:53.015Z,18.89
2017-08-18T19:40:22.307Z,18.86
2017-08-18T19:42:51.561Z,18.78
2017-08-18T19:45:21.119Z,18.89
2017-08-18T19:47:50.462Z,18.86
2017-08-18T19:50:19.891Z,18.66
2017-08-18T19:52:49.376Z,18.48
2017-08-18T19:55:18.595Z,18.71
2017-08-18T19:57:47.776Z,18.66
2017-08-18T20:00:17.519Z,18.65
2017-08-18T20:02:46.870Z,18.56
2017-08-18T20:05:16.178Z,18.51
2017-08-18T20:07:45.710Z,18.56
2017-08-18T20:10:15.136Z,18.65
2017-08-18T20:12:45.375Z,18.64
2017-08-18T20:15:15.151Z,18.61
2017-08-18T20:17:44.570Z,18.59
2017-08-18T20:20:13.741Z,18.64
2017-08-18T20:22:46.567Z,18.62
2017-08-18T20:25:15.843Z,18.45
2017-08-18T20:27:46.020Z,18.36
2017-08-18T20:30:15.497Z,18.39
2017-08-18T20:32:45.541Z,18.25
2017-08-18T20:35:14.712Z,18.14
2017-08-18T20:37:46.077Z,18.35
2017-08-18T20:40:15.269Z,18.47
2017-08-18T20:42:44.912Z,18.35
2017-08-18T20:45:14.502Z,18.27
2017-08-18T20:47:43.696Z,18.35
2017-08-18T20:50:13.063Z,18.32
2017-08-18T20:52:42.687Z,18.33
2017-08-18T20:55:12.005Z,18.40
2017-08-18T20:57:42.489Z,18.28
2017-08-18T21:00:12.522Z,18.31
2017-08-18T21:02:43.075Z,18.24
2017-08-18T21:05:12.324Z,18.21
2017-08-18T21:07:43.219Z,18.36
2017-08-18T21:10:12.959Z,18.32
2017-08-18T21:12:42.131Z,18.29
2017-08-18T21:15:11.807Z,18.41
2017-08-18T21:17:41.176Z,18.40
2017-08-18T21:20:10.643Z,18.36
2017-08-18T21:22:41.055Z,18.43
2017-08-18T21:25:10.276Z,18.32
2017-08-18T21:27:39.476Z,18.42
2017-08-18T21:30:10.104Z,18.50
2017-08-18T21:32:39.387Z,18.49
2017-08-18T21:35:08.704Z,18.47
2017-08-18T21:37:38.223Z,18.38
2017-08-18T21:40:07.748Z,18.37
2017-08-18T21:42:37.059Z,18.34
2017-08-18T21:45:07.089Z,18.37
2017-08-18T21:47:36.419Z,18.43
2017-08-18T21:50:06.002Z,18.44
2017-08-18T21:52:35.871Z,18.43
2017-08-18T21:55:05.091Z,18.50
2017-08-18T21:57:34.278Z,18.43
2017-08-18T22:00:04.056Z,18.42
2017-08-18T22:02:33.431Z,18.32
2017-08-18T22:05:02.646Z,18.37
2017-08-18T22:07:32.173Z,18.36
2017-08-18T22:10:01.497Z,18.45
2017-08-18T22:12:30.711Z,18.41
2017-08-18T22:15:00.139Z,18.27
2017-08-18T22:17:29.786Z,18.36
2017-08-18T22:19:58.917Z,18.46
2017-08-18T22:22:28.786Z,18.54
2017-08-18T22:24:58.065Z,18.32
2017-08-18T22:27:27.264Z,18.36
2017-08-18T22:29:56.794Z,18.36
2017-08-18T22:32:26.188Z,18.31
2017-08-18T22:34:55.430Z,18.39
2017-08-18T22:37:25.035Z,18.28
2017-08-18T22:39:54.199Z,18.25
2017-08-18T22:42:23.714Z,18.17
2017-08-18T22:44:56.663Z,18.17
2017-08-18T22:47:26.395Z,17.96
2017-08-18T22:49:56.119Z,18.03
2017-08-18T22:52:25.968Z,17.98
2017-08-18T22:54:55.438Z,17.84
2017-08-18T22:57:25.022Z,17.90
2017-08-18T22:59:54.424Z,17.86
2017-08-18T23:02:23.720Z,17.84
2017-08-18T23:04:53.150Z,17.84
2017-08-18T23:07:22.625Z,17.82
2017-08-18T23:09:52.226Z,17.69
2017-08-18T23:12:22.215Z,17.71
2017-08-18T23:14:51.547Z,17.64
2017-08-18T23:17:20.747Z,17.62
2017-08-18T23:19:50.568Z,17.61
2017-08-18T23:22:19.963Z,17.29
2017-08-18T23:24:49.350Z,17.44
2017-08-18T23:27:18.803Z,17.36
2017-08-18T23:29:47.963Z,17.29
2017-08-18T23:32:17.183Z,17.25
2017-08-18T23:34:49.308Z,17.26
2017-08-18T23:37:18.866Z,17.20
2017-08-18T23:39:48.469Z,17.19
2017-08-18T23:42:18.510Z,17.12
2017-08-18T23:44:47.983Z,17.08
2017-08-18T23:47:17.295Z,17.06
2017-08-18T23:49:47.023Z,17.05
2017-08-18T23:52:16.628Z,17.07
2017-08-18T23:54:45.784Z,17.06
2017-08-18T23:57:15.210Z,17.07
2017-08-18T23:59:45.011Z,16.93
